METAR KSOP 192355Z AUTO 33003KT 10SM OVC003 01/M01 A3013 RMK AO1 P0005 60039 10010 20000 400600000 52007 
METAR KSOP 192335Z AUTO 00000KT 10SM BKN003 OVC060 01/M01 A3011 RMK AO1 P0004 
METAR KSOP 192315Z AUTO 08005KT 8SM BKN002 BKN012 OVC060 01/M01 A3009 RMK AO1 P0003 
METAR KSOP 192255Z AUTO 03004KT 5SM OVC002 00/M02 A3010 RMK AO1 P0007 
METAR KSOP 192235Z AUTO 32003KT 5SM OVC002 01/M01 A3013 RMK AO1 P0006 
METAR KSOP 192215Z AUTO 35003KT 2 1/2SM OVC003 01/M01 A3012 RMK AO1 P0003 
METAR KSOP 192155Z AUTO 02003KT 5SM OVC002 01/M01 A3011 RMK AO1 P0007 
METAR KSOP 192135Z AUTO 03004KT 3SM OVC002 01/M01 A3010 RMK AO1 P0005 
METAR KSOP 192115Z AUTO 02005KT 5SM OVC002 01/M01 A3011 RMK AO1 P0002 
METAR KSOP 192115Z AUTO 02005KT 5SM OVC002 01/M01 A3011 RMK AO1 P0002 
METAR KSOP 192055Z AUTO 02005KT 3SM OVC003 00/M01 A3011 RMK AO1 P0008 60020 57020 
METAR KSOP 192035Z AUTO 00000KT 3SM OVC002 00/M02 A3013 RMK AO1 P0004 
METAR KSOP 192015Z AUTO 00000KT 2SM OVC001 00/M02 A3014 RMK AO1 P0002 
METAR KSOP 191955Z AUTO 34003KT 3/4SM OVC001 00/M01 A3013 RMK AO1 P0008 
METAR KSOP 191935Z AUTO 01004KT 3/4SM OVC002 00/M01 A3012 RMK AO1 P0003 
METAR KSOP 191915Z AUTO 00000KT 1 1/2SM OVC003 01/M01 A3015 RMK AO1 P0002 
METAR KSOP 191855Z AUTO 00000KT 3SM OVC003 01/M01 A3014 RMK AO1 P0004 
METAR KSOP 191835Z AUTO 02003KT 4SM OVC002 01/M01 A3013 RMK AO1 P0002 
METAR KSOP 191815Z AUTO 03006KT 4SM OVC002 01/M02 A3013 RMK AO1 
METAR KSOP 191755Z AUTO 02003KT 4SM OVC002 01/M01 A3017 RMK AO1 P0001 60018 10030 20010 57010 
METAR KSOP 191735Z AUTO 02005KT 2 1/2SM OVC003 01/M02 A3017 RMK AO1 P0001 
METAR KSOP 191715Z AUTO 35003KT 2 1/2SM OVC003 01/M01 A3021 RMK AO1 P0001 
METAR KSOP 191715Z AUTO 35003KT 2 1/2SM OVC003 01/M01 A3021 RMK AO1 P0001 
METAR KSOP 191655Z AUTO 36004KT 3SM OVC004 01/00 A3021 RMK AO1 P0006 
METAR KSOP 191635Z AUTO 01004KT 4SM BKN005 BKN024 OVC041 01/00 A3020 RMK AO1 P0004 
METAR KSOP 191615Z AUTO 03008KT 3SM BKN006 BKN027 OVC046 02/M01 A3020 RMK AO1 P0003 
METAR KSOP 191615Z AUTO 03008KT 3SM BKN006 BKN027 OVC046 02/M01 A3020 RMK AO1 P0003 
METAR KSOP 191555Z AUTO 01005KT 3SM FEW008 OVC046 02/00 A3022 RMK AO1 P0005 
METAR KSOP 191515Z AUTO 01005KT 6SM OVC046 03/01 A3020 RMK AO1 P0001 
METAR KSOP 191455Z AUTO 02004KT 5SM OVC046 03/00 A3020 RMK AO1 P0004 60006 
METAR KSOP 191435Z AUTO 02004KT 5SM OVC046 03/00 A3020 RMK AO1 P0002 
METAR KSOP 191415Z AUTO 36004KT 4SM OVC048 03/00 A3019 RMK AO1 P0001 
METAR KSOP 191355Z AUTO 36003KT 5SM FEW035 OVC050 03/01 A3018 RMK AO1 P0003 
METAR KSOP 191335Z AUTO 00000KT 5SM FEW035 SCT048 OVC060 03/01 A3017 RMK AO1 
METAR KSOP 191315Z AUTO 00000KT 7SM FEW037 SCT046 SCT060 03/01 A3017 RMK AO1 
METAR KSOP 191255Z AUTO 00000KT 7SM FEW060 03/01 A3016 RMK AO1 
METAR KSOP 191235Z AUTO 00000KT 5SM FEW050 03/01 A3016 RMK AO1 
METAR KSOP 191215Z AUTO 00000KT 5SM FEW045 BKN050 03/01 A3017 RMK AO1 
METAR KSOP 191135Z AUTO 31003KT 5SM BKN050 03/02 A3018 RMK AO1 P0001 
METAR KSOP 191115Z AUTO 00000KT 5SM BKN050 03/01 A3016 RMK AO1 
METAR KSOP 191055Z AUTO 00000KT 5SM BKN050 03/02 A3015 RMK AO1 
METAR KSOP 191035Z AUTO 00000KT 7SM FEW055 03/02 A3015 RMK AO1 
METAR KSOP 191015Z AUTO 00000KT 8SM FEW065 03/01 A3015 RMK AO1 
METAR KSOP 191015Z AUTO 00000KT 8SM FEW065 03/01 A3015 RMK AO1 
METAR KSOP 190955Z AUTO 00000KT 10SM FEW060 BKN065 03/01 A3017 RMK AO1 
METAR KSOP 190935Z AUTO 00000KT 10SM OVC060 03/02 A3017 RMK AO1 
METAR KSOP 190915Z AUTO 23003KT 10SM OVC060 03/01 A3017 RMK AO1 
METAR KSOP 190855Z AUTO 00000KT 9SM OVC060 03/01 A3018 RMK AO1 60003 57003 
METAR KSOP 190835Z AUTO 30003KT 10SM BKN060 OVC065 03/02 A3018 RMK AO1 
METAR KSOP 190815Z AUTO 26004KT 10SM OVC070 03/00 A3019 RMK AO1 
METAR KSOP 190755Z AUTO 23004KT 10SM OVC070 03/01 A3017 RMK AO1 P0001 
METAR KSOP 190735Z AUTO 23004KT 10SM BKN070 BKN075 03/01 A3017 RMK AO1 P0001 
METAR KSOP 190715Z AUTO 29003KT 10SM BKN070 03/01 A3017 RMK AO1 
METAR KSOP 190655Z AUTO 00000KT 10SM BKN070 03/01 A3018 RMK AO1 P0002 
METAR KSOP 190635Z AUTO 29003KT 10SM CLR 03/00 A3018 RMK AO1 
METAR KSOP 190615Z AUTO 00000KT 10SM SCT046 BKN075 03/01 A3018 RMK AO1 
METAR KSOP 190555Z AUTO 26004KT 10SM FEW046 SCT060 BKN075 04/M01 A3019 RMK AO1 10060 20040 52003 
METAR KSOP 190535Z AUTO 24006KT 10SM FEW038 BKN046 BKN075 04/M02 A3017 RMK AO1 
METAR KSOP 190515Z AUTO 22006KT 10SM SCT046 04/M02 A3017 RMK AO1 
METAR KSOP 190435Z AUTO 27003KT 10SM CLR 04/M01 A3016 RMK AO1 
METAR KSOP 190415Z AUTO 27003KT 10SM CLR 04/M02 A3016 RMK AO1 
METAR KSOP 190355Z AUTO 24003KT 10SM CLR 04/M03 A3014 RMK AO1 
METAR KSOP 190335Z AUTO 23005KT 10SM CLR 04/M02 A3014 RMK AO1 
METAR KSOP 190315Z AUTO 22007KT 10SM CLR 04/M02 A3017 RMK AO1 
METAR KSOP 190255Z AUTO 22006KT 10SM CLR 04/M02 A3018 RMK AO1 57007 
METAR KSOP 190235Z AUTO 20006KT 10SM FEW048 04/M01 A3016 RMK AO1 
METAR KSOP 190215Z AUTO 19008KT 10SM BKN048 BKN065 05/M03 A3017 RMK AO1 
METAR KSOP 190155Z AUTO 23005KT 10SM CLR 06/M04 A3020 RMK AO1 
METAR KSOP 190135Z AUTO 25004KT 10SM CLR 06/M04 A3021 RMK AO1 
METAR KSOP 190115Z AUTO 24006KT 10SM CLR 05/M03 A3021 RMK AO1 
METAR KSOP 190035Z AUTO 22003KT 10SM CLR 06/M03 A3019 RMK AO1 
METAR KSOP 190015Z AUTO 24003KT 10SM CLR 06/M03 A3020 RMK AO1 
METAR KSOP 182355Z AUTO 24003KT 10SM CLR 05/M03 A3020 RMK AO1 10070 20050 400801010 52003 
METAR KSOP 182335Z AUTO 00000KT 10SM CLR 05/M02 A3018 RMK AO1 
METAR KSOP 182335Z AUTO 00000KT 10SM CLR 05/M02 A3018 RMK AO1 
METAR KSOP 182315Z AUTO 22003KT 10SM CLR 05/M03 A3017 RMK AO1 
METAR KSOP 182255Z AUTO 00000KT 10SM CLR 06/M02 A3017 RMK AO1 
METAR KSOP 182235Z AUTO 00000KT 10SM CLR 06/M03 A3016 RMK AO1 
METAR KSOP 182215Z AUTO 00000KT 10SM CLR 06/M04 A3017 RMK AO1 
METAR KSOP 182155Z AUTO 00000KT 10SM CLR 06/M04 A3018 RMK AO1 
METAR KSOP 182135Z AUTO 00000KT 10SM CLR 06/M04 A3019 RMK AO1 
METAR KSOP 182115Z AUTO 00000KT 10SM CLR 06/M04 A3018 RMK AO1 
METAR KSOP 182055Z AUTO 00000KT 10SM CLR 06/M04 A3019 RMK AO1 57007 
METAR KSOP 182035Z AUTO 00000KT 10SM CLR 07/M06 A3018 RMK AO1 
METAR KSOP 182015Z AUTO 00000KT 10SM CLR 07/M06 A3020 RMK AO1 
METAR KSOP 181955Z AUTO 28003KT 10SM CLR 07/M06 A3020 RMK AO1 
METAR KSOP 181935Z AUTO 00000KT 10SM CLR 07/M06 A3021 RMK AO1 
METAR KSOP 181915Z AUTO 22003KT 10SM CLR 07/M06 A3020 RMK AO1 
METAR KSOP 181855Z AUTO 00000KT 10SM CLR 07/M07 A3020 RMK AO1 
METAR KSOP 181835Z AUTO 00000KT 10SM CLR 07/M06 A3020 RMK AO1 
METAR KSOP 181815Z AUTO 00000KT 10SM CLR 07/M06 A3022 RMK AO1 
METAR KSOP 181755Z AUTO 00000KT 10SM CLR 07/M07 A3021 RMK AO1 10070 21010 57027 
METAR KSOP 181715Z AUTO 00000KT 10SM CLR 07/M06 A3022 RMK AO1 
METAR KSOP 181655Z AUTO 01003KT 10SM CLR 07/M06 A3024 RMK AO1 
METAR KSOP 181635Z AUTO 04005KT 10SM CLR 06/M07 A3025 RMK AO1 
METAR KSOP 181615Z AUTO 00000KT 10SM CLR 06/M06 A3027 RMK AO1 
METAR KSOP 181555Z AUTO 10005KT 10SM CLR 06/M07 A3027 RMK AO1 
METAR KSOP 181535Z AUTO 03006KT 10SM CLR 05/M06 A3027 RMK AO1